DKH1982 ZGDY-ZPPP
Flight info
| Callsign | DKH1982 |
|---|---|
| Flight time | N/A |
| Altitude | 32100 |
| Route | DYG W140 HUY A581 QNX W136 XISLI XIS2J |
| Aircraft | A320/M-SDE3FGHIRWY/LB1 |
Departure
| Time | N/A |
|---|---|
| Airport | Zhangjiajie Hehua International Airport (ZGDY) |
Arrival
| Time | 2026-05-08 15:19 |
|---|---|
| Airport | Kunming Changshui International Airport (ZPPP) |
| Time | Latitude | Longitude | Altitude | Speed | Heading |
|---|---|---|---|---|---|
| 2026-05-08 15:04 | 24.88146 | 102.21396 | 19906 ft | 300 kts | 207° |
| 2026-05-08 15:04 | 24.86217 | 102.20534 | 19781 ft | 302 kts | 204° |
| 2026-05-08 15:04 | 24.84173 | 102.20000 | 19373 ft | 311 kts | 192° |
| 2026-05-08 15:04 | 24.81993 | 102.19978 | 18965 ft | 320 kts | 176° |
| 2026-05-08 15:05 | 24.79850 | 102.20768 | 18568 ft | 333 kts | 154° |
| 2026-05-08 15:05 | 24.78083 | 102.22464 | 18113 ft | 346 kts | 129° |
| 2026-05-08 15:05 | 24.77082 | 102.24873 | 17652 ft | 349 kts | 102° |
| 2026-05-08 15:05 | 24.77038 | 102.27515 | 17198 ft | 345 kts | 83° |
| 2026-05-08 15:06 | 24.77302 | 102.30112 | 16757 ft | 339 kts | 83° |
| 2026-05-08 15:06 | 24.77565 | 102.32661 | 16324 ft | 332 kts | 84° |
| 2026-05-08 15:06 | 24.77819 | 102.35168 | 15910 ft | 327 kts | 84° |
| 2026-05-08 15:06 | 24.78065 | 102.37638 | 15487 ft | 323 kts | 84° |
| 2026-05-08 15:07 | 24.78308 | 102.40085 | 15067 ft | 320 kts | 84° |
| 2026-05-08 15:07 | 24.78547 | 102.42508 | 14654 ft | 318 kts | 84° |
| 2026-05-08 15:07 | 24.78783 | 102.44914 | 14246 ft | 315 kts | 84° |
| 2026-05-08 15:07 | 24.78831 | 102.47295 | 13816 ft | 308 kts | 98° |
| 2026-05-08 15:08 | 24.78325 | 102.49549 | 13369 ft | 301 kts | 115° |
| 2026-05-08 15:08 | 24.77716 | 102.50898 | 13072 ft | 295 kts | 125° |
| 2026-05-08 15:08 | 24.76085 | 102.53254 | 12475 ft | 285 kts | 131° |
| 2026-05-08 15:08 | 24.74860 | 102.54946 | 12042 ft | 280 kts | 131° |
| 2026-05-08 15:09 | 24.73936 | 102.56782 | 11760 ft | 270 kts | 106° |
| 2026-05-08 15:09 | 24.73849 | 102.58790 | 11723 ft | 261 kts | 79° |
| 2026-05-08 15:09 | 24.74524 | 102.60536 | 11726 ft | 248 kts | 52° |
| 2026-05-08 15:09 | 24.75756 | 102.61825 | 11729 ft | 245 kts | 37° |
| 2026-05-08 15:10 | 24.77097 | 102.62978 | 11747 ft | 241 kts | 37° |
| 2026-05-08 15:10 | 24.78350 | 102.64058 | 11746 ft | 218 kts | 36° |
| 2026-05-08 15:10 | 24.79495 | 102.65048 | 11729 ft | 203 kts | 37° |
| 2026-05-08 15:10 | 24.80605 | 102.66008 | 11532 ft | 201 kts | 37° |
| 2026-05-08 15:11 | 24.81672 | 102.66931 | 11307 ft | 191 kts | 37° |
| 2026-05-08 15:11 | 24.82695 | 102.67816 | 11071 ft | 184 kts | 37° |
| 2026-05-08 15:11 | 24.83685 | 102.68672 | 10832 ft | 179 kts | 38° |
| 2026-05-08 15:11 | 24.84653 | 102.69510 | 10595 ft | 176 kts | 38° |
| 2026-05-08 15:12 | 24.85613 | 102.70341 | 10392 ft | 175 kts | 38° |
| 2026-05-08 15:12 | 24.86566 | 102.71167 | 10173 ft | 174 kts | 39° |
| 2026-05-08 15:12 | 24.87514 | 102.71988 | 9921 ft | 173 kts | 39° |
| 2026-05-08 15:12 | 24.88451 | 102.72799 | 9795 ft | 171 kts | 39° |
| 2026-05-08 15:13 | 24.89383 | 102.73606 | 9779 ft | 170 kts | 39° |
| 2026-05-08 15:13 | 24.90315 | 102.74414 | 9782 ft | 170 kts | 39° |
| 2026-05-08 15:13 | 24.91234 | 102.75212 | 9785 ft | 171 kts | 39° |
| 2026-05-08 15:13 | 24.92165 | 102.76024 | 9788 ft | 171 kts | 39° |
| 2026-05-08 15:14 | 24.93097 | 102.76834 | 9790 ft | 171 kts | 39° |
| 2026-05-08 15:14 | 24.94033 | 102.77645 | 9797 ft | 171 kts | 39° |
| 2026-05-08 15:14 | 24.94972 | 102.78460 | 9805 ft | 172 kts | 39° |
| 2026-05-08 15:14 | 24.95910 | 102.79273 | 9808 ft | 171 kts | 39° |
| 2026-05-08 15:15 | 24.96848 | 102.80086 | 9814 ft | 172 kts | 39° |
| 2026-05-08 15:15 | 24.97789 | 102.80902 | 9820 ft | 172 kts | 39° |
| 2026-05-08 15:15 | 24.98731 | 102.81718 | 9803 ft | 172 kts | 39° |
| 2026-05-08 15:15 | 24.99672 | 102.82535 | 9639 ft | 172 kts | 39° |
| 2026-05-08 15:16 | 25.00606 | 102.83346 | 9437 ft | 170 kts | 39° |
| 2026-05-08 15:16 | 25.01535 | 102.84151 | 9225 ft | 170 kts | 39° |
| 2026-05-08 15:16 | 25.02463 | 102.84957 | 9009 ft | 170 kts | 39° |
| 2026-05-08 15:16 | 25.03386 | 102.85758 | 8793 ft | 169 kts | 40° |
| 2026-05-08 15:17 | 25.04307 | 102.86559 | 8576 ft | 169 kts | 40° |
| 2026-05-08 15:17 | 25.05224 | 102.87354 | 8362 ft | 168 kts | 39° |
| 2026-05-08 15:17 | 25.06133 | 102.88144 | 8146 ft | 165 kts | 40° |
| 2026-05-08 15:17 | 25.07026 | 102.88920 | 7923 ft | 162 kts | 40° |
| 2026-05-08 15:18 | 25.07904 | 102.89682 | 7694 ft | 158 kts | 38° |
| 2026-05-08 15:18 | 25.08753 | 102.90426 | 7425 ft | 154 kts | 37° |
| 2026-05-08 15:18 | 25.09588 | 102.91145 | 7194 ft | 151 kts | 36° |
| 2026-05-08 15:18 | 25.10408 | 102.91857 | 6992 ft | 149 kts | 36° |
| 2026-05-08 15:19 | 25.11203 | 102.92538 | 6906 ft | 133 kts | 37° |
| 2026-05-08 15:19 | 25.11802 | 102.93062 | 6901 ft | 85 kts | 40° |
| 2026-05-08 15:19 | 25.12127 | 102.93350 | 6900 ft | 37 kts | 39° |
| 2026-05-08 15:19 | 25.12226 | 102.93459 | 6900 ft | 16 kts | 50° |
| 2026-05-08 15:20 | 25.12263 | 102.93561 | 6900 ft | 13 kts | 56° |
| 2026-05-08 15:20 | 25.12309 | 102.93652 | 6900 ft | 14 kts | 72° |
| 2026-05-08 15:20 | 25.12260 | 102.93706 | 6899 ft | 14 kts | 203° |
| 2026-05-08 15:20 | 25.12183 | 102.93643 | 6899 ft | 14 kts | 218° |
| 2026-05-08 15:21 | 25.12107 | 102.93575 | 6900 ft | 14 kts | 221° |
| 2026-05-08 15:21 | 25.12030 | 102.93504 | 6900 ft | 15 kts | 218° |
| 2026-05-08 15:21 | 25.11945 | 102.93430 | 6900 ft | 16 kts | 218° |
| 2026-05-08 15:21 | 25.11846 | 102.93363 | 6901 ft | 17 kts | 190° |
| 2026-05-08 15:22 | 25.11753 | 102.93437 | 6901 ft | 18 kts | 126° |
| 2026-05-08 15:22 | 25.11668 | 102.93544 | 6900 ft | 18 kts | 126° |
| 2026-05-08 15:22 | 25.11607 | 102.93668 | 6899 ft | 19 kts | 122° |
| 2026-05-08 15:22 | 25.11510 | 102.93711 | 6899 ft | 14 kts | 195° |
| 2026-05-08 15:23 | 25.11460 | 102.93685 | 6899 ft | 0 kts | 209° |
| 2026-05-08 15:23 | 25.11435 | 102.93668 | 6899 ft | 13 kts | 214° |
| 2026-05-08 15:23 | 25.11385 | 102.93624 | 6899 ft | 5 kts | 220° |
| 2026-05-08 15:24 | 25.11372 | 102.93612 | 6899 ft | 1 kts | 221° |
| 2026-05-08 15:24 | 25.11369 | 102.93609 | 6899 ft | 2 kts | 220° |
| 2026-05-08 15:24 | 25.11367 | 102.93607 | 6899 ft | 0 kts | 220° |